createdAt,value
2018-07-03T00:01:25.364Z,43.30
2018-07-03T00:03:53.121Z,43.60
2018-07-03T00:06:20.863Z,43.20
2018-07-03T00:08:48.567Z,43.50
2018-07-03T00:11:16.591Z,44.50
2018-07-03T00:13:44.307Z,43.70
2018-07-03T00:18:45.469Z,44.00
2018-07-03T00:23:40.931Z,44.50
2018-07-03T00:26:08.637Z,44.60
2018-07-03T00:28:36.370Z,44.60
2018-07-03T00:31:04.083Z,44.70
2018-07-03T00:33:31.799Z,45.10
2018-07-03T00:35:59.559Z,45.00
2018-07-03T00:38:27.314Z,45.00
2018-07-03T00:40:55.035Z,44.80
2018-07-03T00:43:22.911Z,45.00
2018-07-03T00:45:50.629Z,45.00
2018-07-03T00:48:18.333Z,45.00
2018-07-03T00:50:46.017Z,45.30
2018-07-03T00:53:13.867Z,45.50
2018-07-03T00:55:41.599Z,45.60
2018-07-03T00:58:09.304Z,45.30
2018-07-03T01:00:37.050Z,45.60
2018-07-03T01:03:04.949Z,45.80
2018-07-03T01:05:33.039Z,46.10
2018-07-03T01:08:00.758Z,45.70
2018-07-03T01:10:28.487Z,45.60
2018-07-03T01:12:56.769Z,45.40
2018-07-03T01:15:25.246Z,46.00
2018-07-03T01:17:52.992Z,46.10
2018-07-03T01:20:20.693Z,46.30
2018-07-03T01:22:48.758Z,46.10
2018-07-03T01:25:16.452Z,46.00
2018-07-03T01:30:12.157Z,46.50
2018-07-03T01:32:39.870Z,46.00
2018-07-03T01:35:07.559Z,46.00
2018-07-03T01:37:35.243Z,46.20
2018-07-03T01:40:02.938Z,46.60
2018-07-03T01:42:30.631Z,46.10
2018-07-03T01:44:58.618Z,47.20
2018-07-03T01:47:26.289Z,46.60
2018-07-03T01:49:53.999Z,46.40
2018-07-03T01:52:21.698Z,46.10
2018-07-03T01:54:49.464Z,46.50
2018-07-03T01:57:17.167Z,46.30
2018-07-03T01:59:44.885Z,46.20
2018-07-03T02:02:12.569Z,46.40
2018-07-03T02:04:40.253Z,46.40
2018-07-03T02:07:08.002Z,46.30
2018-07-03T02:09:35.683Z,46.60
2018-07-03T02:14:31.156Z,47.00
2018-07-03T02:16:59.659Z,46.60
2018-07-03T02:19:27.330Z,46.30
2018-07-03T02:21:55.039Z,46.30
2018-07-03T02:24:22.724Z,46.10
2018-07-03T02:26:50.414Z,45.80
2018-07-03T02:29:18.122Z,45.90
2018-07-03T02:34:13.567Z,45.80
2018-07-03T02:36:41.266Z,45.90
2018-07-03T02:39:10.132Z,46.50
2018-07-03T02:41:38.064Z,46.70
2018-07-03T02:44:05.811Z,46.60
2018-07-03T02:46:33.510Z,46.60
2018-07-03T02:49:01.235Z,46.50
2018-07-03T02:51:28.960Z,46.50
2018-07-03T02:53:56.710Z,46.50
2018-07-03T02:56:24.416Z,46.70
2018-07-03T03:01:20.465Z,47.20
2018-07-03T03:03:48.156Z,47.40
2018-07-03T03:06:15.881Z,47.30
2018-07-03T03:08:43.590Z,47.00
2018-07-03T03:11:11.329Z,47.20
2018-07-03T03:13:39.059Z,47.40
2018-07-03T03:16:06.760Z,47.10
2018-07-03T03:18:34.485Z,47.30
2018-07-03T03:21:02.286Z,47.50
2018-07-03T03:23:30.011Z,47.30
2018-07-03T03:25:57.751Z,47.40
2018-07-03T03:28:25.423Z,47.00
2018-07-03T03:30:53.133Z,47.10
2018-07-03T03:33:20.840Z,47.40
2018-07-03T03:35:48.587Z,47.30
2018-07-03T03:38:17.139Z,47.40
2018-07-03T03:40:44.831Z,47.60
2018-07-03T03:43:12.534Z,47.80
2018-07-03T03:45:40.189Z,47.80
2018-07-03T03:48:07.872Z,46.70
2018-07-03T03:50:35.546Z,47.90
2018-07-03T03:55:31.067Z,49.30
2018-07-03T03:57:58.814Z,48.90
2018-07-03T04:00:26.544Z,48.70
2018-07-03T04:02:54.236Z,48.50
2018-07-03T04:05:21.910Z,48.30
2018-07-03T04:07:49.624Z,48.30
2018-07-03T04:10:17.385Z,48.50
2018-07-03T04:12:45.078Z,48.60
2018-07-03T04:15:12.782Z,48.70
2018-07-03T04:17:40.447Z,48.70
2018-07-03T04:20:08.253Z,49.10
2018-07-03T04:22:36.109Z,49.40
2018-07-03T04:25:03.802Z,49.70
2018-07-03T04:27:31.529Z,49.90
2018-07-03T04:29:59.265Z,50.50
2018-07-03T04:32:26.983Z,51.10
2018-07-03T04:34:54.824Z,51.20
2018-07-03T04:37:22.567Z,51.10
2018-07-03T04:39:50.321Z,50.30
2018-07-03T04:42:18.154Z,49.90
2018-07-03T04:44:45.857Z,50.20
2018-07-03T04:47:13.565Z,50.10
2018-07-03T04:49:41.052Z,50.10
2018-07-03T04:52:08.779Z,50.60
2018-07-03T04:54:36.497Z,50.60
2018-07-03T04:57:04.581Z,51.10
2018-07-03T04:59:32.287Z,50.80
2018-07-03T05:02:00.207Z,50.30
2018-07-03T05:06:55.678Z,49.80
2018-07-03T05:09:23.446Z,49.70
2018-07-03T05:11:51.172Z,49.90
2018-07-03T05:14:18.885Z,49.90
2018-07-03T05:16:51.210Z,50.00
2018-07-03T05:19:18.965Z,50.20
2018-07-03T05:21:46.681Z,50.50
2018-07-03T05:24:14.499Z,49.70
2018-07-03T05:26:42.259Z,50.20
2018-07-03T05:29:09.918Z,50.70
2018-07-03T05:31:37.793Z,51.10
2018-07-03T05:34:06.146Z,51.10
2018-07-03T05:39:01.882Z,50.20
2018-07-03T05:41:29.599Z,49.70
2018-07-03T05:43:57.338Z,49.30
2018-07-03T05:46:25.027Z,49.40
2018-07-03T05:48:52.765Z,49.50
2018-07-03T05:53:48.722Z,49.40
2018-07-03T05:56:16.503Z,49.30
2018-07-03T05:58:44.254Z,49.10
2018-07-03T06:01:11.962Z,48.60
2018-07-03T06:03:39.629Z,48.80
2018-07-03T06:06:07.322Z,49.00
2018-07-03T06:08:35.028Z,49.00
2018-07-03T06:13:30.582Z,49.00
2018-07-03T06:15:58.822Z,49.10
2018-07-03T06:18:26.545Z,48.50
2018-07-03T06:20:54.266Z,48.70
2018-07-03T06:25:49.806Z,50.30
2018-07-03T06:28:17.885Z,48.80
2018-07-03T06:33:13.607Z,48.50
2018-07-03T06:35:41.392Z,48.80
2018-07-03T06:38:09.112Z,49.40
2018-07-03T06:40:36.882Z,49.10
2018-07-03T06:43:04.590Z,49.20
2018-07-03T06:45:32.297Z,48.90
2018-07-03T06:47:59.953Z,48.50
2018-07-03T06:50:27.647Z,48.70
2018-07-03T06:52:55.340Z,48.40
2018-07-03T06:55:23.084Z,48.10
2018-07-03T06:57:50.795Z,48.50
2018-07-03T07:02:46.227Z,48.70
2018-07-03T07:05:13.959Z,48.40
2018-07-03T07:07:41.949Z,48.50
2018-07-03T07:10:09.627Z,48.20
2018-07-03T07:15:13.472Z,47.20
2018-07-03T07:17:41.217Z,47.20
2018-07-03T07:20:08.909Z,47.30
2018-07-03T07:22:36.628Z,48.20
2018-07-03T07:25:05.568Z,46.60
2018-07-03T07:27:33.879Z,46.30
2018-07-03T07:30:01.588Z,46.90
2018-07-03T07:32:29.270Z,46.90
2018-07-03T07:34:56.921Z,46.70
2018-07-03T07:37:24.650Z,46.40
2018-07-03T07:39:52.351Z,46.30
2018-07-03T07:42:20.059Z,46.10
2018-07-03T07:44:47.756Z,43.80
2018-07-03T07:47:16.318Z,45.00
2018-07-03T07:49:44.001Z,45.20
2018-07-03T07:52:11.694Z,45.40
2018-07-03T07:54:40.884Z,44.50
2018-07-03T07:57:08.623Z,44.40
2018-07-03T07:59:36.334Z,44.40
2018-07-03T08:02:04.401Z,44.00
2018-07-03T08:04:32.102Z,43.20
2018-07-03T08:07:00.348Z,40.70
2018-07-03T08:09:29.011Z,39.30
2018-07-03T08:11:56.712Z,39.50
2018-07-03T08:14:24.377Z,37.80
2018-07-03T08:16:52.054Z,37.10
2018-07-03T08:19:19.724Z,36.50
2018-07-03T08:21:47.386Z,35.80
2018-07-03T08:24:15.076Z,35.30
2018-07-03T08:26:42.777Z,34.90
2018-07-03T08:29:10.463Z,34.60
2018-07-03T08:31:38.199Z,33.50
2018-07-03T08:34:05.908Z,33.30
2018-07-03T08:36:33.605Z,32.60
2018-07-03T08:39:01.307Z,31.60
2018-07-03T08:41:29.021Z,31.40
2018-07-03T08:43:56.730Z,30.50
2018-07-03T08:48:52.099Z,30.50
2018-07-03T08:51:19.795Z,29.70
2018-07-03T08:53:47.511Z,29.80
2018-07-03T08:56:15.221Z,30.60
2018-07-03T08:58:42.910Z,29.10
2018-07-03T09:01:10.607Z,28.20
2018-07-03T09:03:38.261Z,27.80
2018-07-03T09:06:06.159Z,28.20
2018-07-03T09:08:33.917Z,27.70
2018-07-03T09:11:01.602Z,28.10
2018-07-03T09:13:29.299Z,26.90
2018-07-03T09:15:56.999Z,26.80
2018-07-03T09:20:52.413Z,27.00
2018-07-03T09:23:20.148Z,26.90
2018-07-03T09:25:47.844Z,26.60
2018-07-03T09:28:15.542Z,26.40
2018-07-03T09:30:43.277Z,25.90
2018-07-03T09:33:10.905Z,25.70
2018-07-03T09:35:38.610Z,25.00
2018-07-03T09:38:06.323Z,24.90
2018-07-03T09:40:34.035Z,24.20
2018-07-03T09:43:01.748Z,24.30
2018-07-03T09:45:29.438Z,23.40
2018-07-03T09:47:57.116Z,23.20
2018-07-03T09:50:25.510Z,23.00
2018-07-03T09:52:55.367Z,22.70
2018-07-03T09:55:24.553Z,22.50
2018-07-03T09:57:54.489Z,21.60
2018-07-03T10:02:57.870Z,22.10
2018-07-03T10:05:26.576Z,21.40
2018-07-03T10:07:55.167Z,21.20
2018-07-03T10:10:23.016Z,20.60
2018-07-03T10:12:51.068Z,20.40
2018-07-03T10:15:18.914Z,20.50
2018-07-03T10:17:46.687Z,19.90
2018-07-03T10:20:14.546Z,19.70
2018-07-03T10:22:42.243Z,20.20
2018-07-03T10:25:10.004Z,19.60
2018-07-03T10:27:37.715Z,19.60
2018-07-03T10:30:05.617Z,20.30
2018-07-03T10:32:33.543Z,19.90
2018-07-03T10:35:01.307Z,20.50
2018-07-03T10:37:29.879Z,19.80
2018-07-03T10:39:57.589Z,19.80
2018-07-03T10:42:25.372Z,20.60
2018-07-03T10:44:53.309Z,19.90
2018-07-03T10:47:21.073Z,19.50
2018-07-03T10:49:48.886Z,19.10
2018-07-03T10:52:16.639Z,18.90
2018-07-03T10:54:44.395Z,18.70
2018-07-03T10:57:12.189Z,17.20
2018-07-03T10:59:39.968Z,18.40
2018-07-03T11:02:07.653Z,18.30
2018-07-03T11:04:35.387Z,18.00
2018-07-03T11:07:03.127Z,17.20
2018-07-03T11:09:30.874Z,17.10
2018-07-03T11:11:58.577Z,18.10
2018-07-03T11:14:26.413Z,17.50
2018-07-03T11:16:55.123Z,16.90
2018-07-03T11:19:22.902Z,16.80
2018-07-03T11:21:50.647Z,16.90
2018-07-03T11:24:18.399Z,15.90
2018-07-03T11:29:13.996Z,16.20
2018-07-03T11:31:42.857Z,16.30
2018-07-03T11:34:10.909Z,16.20
2018-07-03T11:36:39.251Z,16.70
2018-07-03T11:39:08.199Z,16.70
2018-07-03T11:41:36.019Z,16.00
2018-07-03T11:46:32.074Z,15.50
2018-07-03T11:48:59.929Z,14.50
2018-07-03T11:51:28.656Z,14.60
2018-07-03T11:53:56.385Z,15.00
2018-07-03T11:56:24.159Z,15.10
2018-07-03T11:58:53.821Z,14.60
2018-07-03T12:01:22.272Z,14.80
2018-07-03T12:03:49.944Z,14.30
2018-07-03T12:06:17.654Z,14.30
2018-07-03T12:08:45.517Z,14.10
2018-07-03T12:11:13.256Z,14.00
2018-07-03T12:13:41.122Z,13.80
2018-07-03T12:16:09.046Z,14.10
2018-07-03T12:18:42.493Z,14.90
2018-07-03T12:21:10.292Z,14.60
2018-07-03T12:23:38.351Z,14.60
2018-07-03T12:26:06.156Z,14.20
2018-07-03T12:28:33.883Z,14.10
2018-07-03T12:31:01.563Z,14.20
2018-07-03T12:33:29.330Z,13.60
2018-07-03T12:38:24.781Z,13.20
2018-07-03T12:40:52.457Z,12.80
2018-07-03T12:43:20.656Z,13.30
2018-07-03T12:45:48.311Z,13.10
2018-07-03T12:48:16.014Z,13.40
2018-07-03T12:50:43.700Z,13.50
2018-07-03T12:53:11.381Z,12.20
2018-07-03T12:55:39.048Z,12.10
2018-07-03T12:58:06.750Z,12.30
2018-07-03T13:00:34.499Z,12.30
2018-07-03T13:03:02.172Z,12.00
2018-07-03T13:05:29.852Z,12.40
2018-07-03T13:07:57.615Z,12.60
2018-07-03T13:10:25.278Z,13.30
2018-07-03T13:12:53.511Z,13.10
2018-07-03T13:15:21.237Z,12.70
2018-07-03T13:17:48.921Z,12.00
2018-07-03T13:20:16.728Z,12.40
2018-07-03T13:22:44.763Z,11.90
2018-07-03T13:25:12.833Z,12.00
2018-07-03T13:27:40.490Z,11.70
2018-07-03T13:30:09.232Z,11.80
2018-07-03T13:32:36.979Z,12.00
2018-07-03T13:35:05.943Z,11.60
2018-07-03T13:37:33.669Z,11.40
2018-07-03T13:40:01.369Z,11.40
2018-07-03T13:42:29.046Z,10.90
2018-07-03T13:44:56.713Z,10.70
2018-07-03T13:47:25.231Z,10.80
2018-07-03T13:52:20.703Z,10.70
2018-07-03T13:54:49.042Z,10.90
2018-07-03T13:57:16.735Z,11.00
2018-07-03T13:59:44.533Z,10.90
2018-07-03T14:02:12.244Z,11.70
2018-07-03T14:04:39.936Z,12.00
2018-07-03T14:07:07.962Z,12.20
2018-07-03T14:09:35.649Z,12.70
2018-07-03T14:12:03.348Z,12.60
2018-07-03T14:14:31.066Z,13.20
2018-07-03T14:16:59.152Z,12.80
2018-07-03T14:19:26.966Z,12.70
2018-07-03T14:21:55.131Z,12.40
2018-07-03T14:24:22.778Z,12.30
2018-07-03T14:26:50.555Z,12.20
2018-07-03T14:29:18.263Z,11.90
2018-07-03T14:31:45.934Z,11.80
2018-07-03T14:34:13.623Z,11.40
2018-07-03T14:36:41.704Z,11.70
2018-07-03T14:39:11.742Z,11.40
2018-07-03T14:41:39.456Z,11.50
2018-07-03T14:44:07.147Z,11.90
2018-07-03T14:46:35.047Z,11.50
2018-07-03T14:49:03.744Z,11.10
2018-07-03T14:51:31.464Z,11.30
2018-07-03T14:53:59.142Z,12.10
2018-07-03T14:56:26.940Z,11.20
2018-07-03T14:58:54.625Z,11.10
2018-07-03T15:01:22.347Z,10.60
2018-07-03T15:03:50.040Z,10.50
2018-07-03T15:06:17.770Z,10.80
2018-07-03T15:08:45.403Z,10.50
2018-07-03T15:11:13.091Z,10.10
2018-07-03T15:13:40.761Z,10.10
2018-07-03T15:16:08.481Z,9.90
2018-07-03T15:18:41.819Z,9.80
2018-07-03T15:21:09.757Z,9.70
2018-07-03T15:23:37.638Z,9.90
2018-07-03T15:27:08.453Z,10.60
2018-07-03T15:29:36.130Z,10.20
2018-07-03T15:32:03.848Z,9.40
2018-07-03T15:34:31.666Z,9.50
2018-07-03T15:36:59.382Z,9.40
2018-07-03T15:39:27.033Z,9.50
2018-07-03T15:41:54.816Z,9.40
2018-07-03T15:44:39.792Z,9.10
2018-07-03T15:47:07.503Z,9.30
2018-07-03T15:49:35.206Z,9.40
2018-07-03T15:52:02.949Z,9.50
2018-07-03T15:54:31.181Z,9.70
2018-07-03T15:56:58.886Z,9.60
2018-07-03T15:59:26.595Z,9.50
2018-07-03T16:01:55.395Z,9.60
2018-07-03T16:05:38.563Z,10.30
2018-07-03T16:08:21.682Z,9.90
2018-07-03T16:10:49.590Z,9.90
2018-07-03T16:13:17.345Z,10.00
2018-07-03T16:15:45.043Z,9.80
2018-07-03T16:18:13.329Z,10.40
2018-07-03T16:20:41.891Z,9.90
2018-07-03T16:23:09.980Z,10.00
2018-07-03T16:25:37.970Z,10.00
2018-07-03T16:28:05.834Z,10.50
2018-07-03T16:30:33.584Z,10.70
2018-07-03T16:33:01.257Z,11.30
2018-07-03T16:35:28.953Z,11.20
2018-07-03T16:37:56.688Z,12.00
2018-07-03T16:40:24.423Z,12.60
2018-07-03T16:42:52.103Z,12.10
2018-07-03T16:45:19.809Z,12.00
2018-07-03T16:47:47.522Z,11.90
2018-07-03T16:50:15.200Z,12.00
2018-07-03T16:52:42.947Z,12.10
2018-07-03T16:57:38.893Z,12.40
2018-07-03T17:00:06.790Z,12.70
2018-07-03T17:02:35.713Z,12.60
2018-07-03T17:05:04.999Z,13.00
2018-07-03T17:07:32.761Z,12.80
2018-07-03T17:10:00.489Z,13.10
2018-07-03T17:17:25.873Z,14.40
2018-07-03T17:19:53.568Z,14.40
2018-07-03T17:22:21.289Z,14.60
2018-07-03T17:27:16.763Z,14.40
2018-07-03T17:29:44.464Z,14.80
2018-07-03T17:34:40.225Z,14.20
2018-07-03T17:37:09.230Z,14.90
2018-07-03T17:39:55.121Z,15.00
2018-07-03T17:42:40.941Z,15.00
2018-07-03T17:45:54.595Z,15.30
2018-07-03T17:48:23.348Z,15.70
2018-07-03T17:50:51.154Z,15.60
2018-07-03T17:53:19.143Z,16.20
2018-07-03T17:55:46.875Z,16.30
2018-07-03T17:58:14.548Z,16.20
2018-07-03T18:00:42.767Z,16.40
2018-07-03T18:03:10.485Z,16.40
2018-07-03T18:05:38.399Z,16.60
2018-07-03T18:08:06.493Z,16.80
2018-07-03T18:10:34.839Z,16.70
2018-07-03T18:13:03.271Z,17.00
2018-07-03T18:15:31.918Z,17.30
2018-07-03T18:20:27.465Z,18.00
2018-07-03T18:22:55.203Z,18.50
2018-07-03T18:25:22.999Z,19.00
2018-07-03T18:27:53.213Z,19.40
2018-07-03T18:30:21.205Z,18.70
2018-07-03T18:32:48.946Z,18.80
2018-07-03T18:35:16.713Z,19.10
2018-07-03T18:37:44.479Z,20.10
2018-07-03T18:40:12.244Z,20.00
2018-07-03T18:42:40.627Z,20.00
2018-07-03T18:45:08.697Z,19.90
2018-07-03T18:47:37.482Z,20.10
2018-07-03T18:50:05.359Z,20.70
2018-07-03T18:52:34.039Z,21.00
2018-07-03T18:55:01.851Z,21.70
2018-07-03T18:57:30.623Z,22.20
2018-07-03T18:59:58.369Z,22.40
2018-07-03T19:02:27.489Z,22.50
2018-07-03T19:04:55.166Z,22.50
2018-07-03T19:07:22.887Z,22.90
2018-07-03T19:09:50.634Z,23.50
2018-07-03T19:12:18.373Z,24.30
2018-07-03T19:14:46.070Z,25.30
2018-07-03T19:17:14.938Z,25.80
2018-07-03T19:19:42.802Z,26.40
2018-07-03T19:22:10.979Z,26.60
2018-07-03T19:24:38.756Z,26.70
2018-07-03T19:27:06.482Z,26.90
2018-07-03T19:29:34.206Z,27.20
2018-07-03T19:32:01.996Z,27.30
2018-07-03T19:34:29.911Z,27.50
2018-07-03T19:36:57.681Z,27.30
2018-07-03T19:39:25.485Z,27.30
2018-07-03T19:41:53.225Z,28.70
2018-07-03T19:44:20.944Z,29.50
2018-07-03T19:46:48.816Z,28.80
2018-07-03T19:49:16.567Z,29.60
2018-07-03T19:51:44.282Z,29.80
2018-07-03T19:54:11.994Z,30.00
2018-07-03T19:56:39.713Z,29.60
2018-07-03T19:59:07.487Z,29.50
2018-07-03T20:01:35.175Z,30.00
2018-07-03T20:04:02.928Z,30.60
2018-07-03T20:06:30.625Z,32.00
2018-07-03T20:08:58.314Z,32.90
2018-07-03T20:11:26.028Z,33.50
2018-07-03T20:13:53.739Z,33.70
2018-07-03T20:16:21.448Z,33.70
2018-07-03T20:18:49.191Z,35.20
2018-07-03T20:21:16.996Z,35.30
2018-07-03T20:23:44.663Z,35.60
2018-07-03T20:26:12.349Z,36.20
2018-07-03T20:28:40.047Z,36.80
2018-07-03T20:31:07.869Z,37.20
2018-07-03T20:33:35.615Z,37.40
2018-07-03T20:36:03.344Z,37.80
2018-07-03T20:41:01.194Z,37.80
2018-07-03T20:43:43.131Z,37.70
2018-07-03T20:46:11.007Z,38.00
2018-07-03T20:48:39.805Z,38.70
2018-07-03T20:51:08.313Z,38.90
2018-07-03T20:53:36.052Z,39.30
2018-07-03T20:56:03.923Z,39.00
2018-07-03T20:58:31.632Z,38.90
2018-07-03T21:00:59.370Z,39.30
2018-07-03T21:03:27.045Z,39.30
2018-07-03T21:05:55.022Z,39.70
2018-07-03T21:08:22.713Z,40.40
2018-07-03T21:10:50.422Z,40.50
2018-07-03T21:13:18.119Z,40.20
2018-07-03T21:15:45.923Z,40.60
2018-07-03T21:18:13.594Z,41.10
2018-07-03T21:20:41.341Z,41.10
2018-07-03T21:23:09.089Z,41.30
2018-07-03T21:25:36.802Z,41.80
2018-07-03T21:28:04.678Z,42.10
2018-07-03T21:30:32.387Z,42.60
2018-07-03T21:33:00.074Z,42.90
2018-07-03T21:35:27.760Z,42.90
2018-07-03T21:37:55.431Z,43.50
2018-07-03T21:40:23.103Z,44.90
2018-07-03T21:42:51.633Z,45.50
2018-07-03T21:45:19.286Z,45.60
2018-07-03T21:47:46.981Z,46.10
2018-07-03T21:50:14.645Z,46.10
2018-07-03T21:52:42.325Z,46.20
2018-07-03T21:55:09.991Z,45.70
2018-07-03T21:57:37.665Z,46.20
2018-07-03T22:00:07.316Z,46.20
2018-07-03T22:02:35.070Z,46.70
2018-07-03T22:05:02.925Z,47.30
2018-07-03T22:07:30.575Z,47.60
2018-07-03T22:09:58.255Z,47.70
2018-07-03T22:12:25.970Z,47.60
2018-07-03T22:14:53.634Z,47.50
2018-07-03T22:17:21.310Z,47.70
2018-07-03T22:19:48.979Z,47.80
2018-07-03T22:22:16.613Z,48.00
2018-07-03T22:24:44.271Z,48.30
2018-07-03T22:27:11.936Z,48.50
2018-07-03T22:29:39.586Z,48.50
2018-07-03T22:32:07.246Z,48.70
2018-07-03T22:34:34.909Z,48.90
2018-07-03T22:37:02.574Z,49.60
2018-07-03T22:39:30.302Z,50.00
2018-07-03T22:44:25.687Z,50.50
2018-07-03T22:46:53.355Z,50.80
2018-07-03T22:49:21.187Z,51.00
2018-07-03T22:51:48.854Z,50.70
2018-07-03T22:56:44.200Z,50.40
2018-07-03T23:01:39.605Z,50.20
2018-07-03T23:06:35.018Z,49.70
2018-07-03T23:09:04.564Z,49.50
2018-07-03T23:11:32.217Z,49.80
2018-07-03T23:13:59.864Z,49.80
2018-07-03T23:16:27.538Z,49.30
2018-07-03T23:18:55.211Z,49.30
2018-07-03T23:21:22.886Z,49.30
2018-07-03T23:23:51.007Z,49.40
2018-07-03T23:26:18.673Z,49.60
2018-07-03T23:28:46.318Z,49.80
2018-07-03T23:31:14.020Z,50.00
2018-07-03T23:33:41.675Z,50.10
2018-07-03T23:36:09.323Z,50.20
2018-07-03T23:41:04.664Z,50.60
2018-07-03T23:43:32.311Z,50.70
2018-07-03T23:45:59.629Z,50.90
2018-07-03T23:48:44.536Z,50.70
2018-07-03T23:51:35.634Z,50.60
2018-07-03T23:54:26.647Z,50.30
2018-07-03T23:57:17.957Z,50.10
